Time;durP1;ratioP1;P1;durP2;ratioP2;P2;SDS_P1;SDS_P2;PMS_P1;PMS_P2;Temp;Humidity;BMP_temperature;BMP_pressure;BME280_temperature;BME280_humidity;BME280_pressure;Samples;Min_cycle;Max_cycle;Signal;HPM_P1;HPM_P2
2022/11/22 00:01:30;;;;;;;5.95;2.50;;;15.10;74.30;;;;;;4189695;28;20085;-61
2022/11/22 00:04:13;;;;;;;0.00;0.00;;;15.20;74.30;;;;;;4191941;28;20122;-59
2022/11/22 00:06:54;;;;;;;0.20;0.20;;;15.20;74.30;;;;;;4190986;28;20107;-59
2022/11/22 00:09:35;;;;;;;0.22;0.22;;;15.20;74.10;;;;;;4201360;27;20410;-60
2022/11/22 00:12:16;;;;;;;0.20;0.20;;;15.20;74.10;;;;;;4207801;27;20062;-60
2022/11/22 00:14:57;;;;;;;0.00;0.00;;;15.20;74.10;;;;;;4188736;28;20058;-60
2022/11/22 00:17:38;;;;;;;0.00;0.00;;;15.10;74.00;;;;;;4190326;28;20290;-60
2022/11/22 00:20:20;;;;;;;0.00;0.00;;;15.10;74.20;;;;;;4206126;28;20056;-60
2022/11/22 00:23:01;;;;;;;0.20;0.20;;;15.10;74.30;;;;;;4191426;28;20047;-60
2022/11/22 00:25:41;;;;;;;0.00;0.00;;;15.10;74.20;;;;;;4196718;28;20063;-60
2022/11/22 00:28:22;;;;;;;0.00;0.00;;;15.20;74.00;;;;;;4207441;28;20054;-59
2022/11/22 00:31:03;;;;;;;0.30;0.30;;;15.20;73.90;;;;;;4203583;28;20075;-59
2022/11/22 00:33:44;;;;;;;0.00;0.00;;;15.20;73.80;;;;;;4189006;28;20183;-60
2022/11/22 00:36:27;;;;;;;0.10;0.10;;;15.30;74.40;;;;;;4192570;28;20510;-60
2022/11/22 00:39:09;;;;;;;0.00;0.00;;;15.30;73.40;;;;;;4197532;28;20131;-60
2022/11/22 00:41:50;;;;;;;0.00;0.00;;;15.30;73.20;;;;;;4203433;28;20055;-60
2022/11/22 00:44:31;;;;;;;2.03;0.90;;;15.40;73.10;;;;;;4192330;28;20055;-60
2022/11/22 00:47:12;;;;;;;0.00;0.00;;;15.50;72.60;;;;;;4192264;28;20051;-60
2022/11/22 00:49:53;;;;;;;0.00;0.00;;;15.60;72.30;;;;;;4208391;28;20062;-60
2022/11/22 00:52:35;;;;;;;0.00;0.00;;;15.70;72.00;;;;;;4197123;28;20063;-60
2022/11/22 00:55:16;;;;;;;0.00;0.00;;;15.70;71.80;;;;;;4203822;28;20186;-59
2022/11/22 00:57:57;;;;;;;0.77;0.75;;;15.70;71.50;;;;;;4188789;28;20070;-60
2022/11/22 01:00:38;;;;;;;0.10;0.10;;;15.80;71.40;;;;;;4192376;28;20180;-59
2022/11/22 01:03:19;;;;;;;0.00;0.00;;;15.80;71.30;;;;;;4191666;28;20047;-60
2022/11/22 01:06:00;;;;;;;0.38;0.38;;;15.80;71.20;;;;;;4188145;28;20089;-59
2022/11/22 01:08:42;;;;;;;0.00;0.00;;;15.70;71.40;;;;;;4192147;28;20078;-60
2022/11/22 01:11:23;;;;;;;0.10;0.10;;;15.70;71.40;;;;;;4193286;28;20058;-60
2022/11/22 01:14:06;;;;;;;0.85;0.57;;;15.80;71.30;;;;;;4201402;28;20067;-60
2022/11/22 01:16:48;;;;;;;0.50;0.50;;;15.80;71.00;;;;;;4193218;28;20406;-60
2022/11/22 01:19:29;;;;;;;;;;;15.90;70.90;;;;;;4189995;28;20059;-60
2022/11/22 01:22:10;;;;;;;0.03;0.03;;;15.90;71.00;;;;;;4189832;28;19931;-60
2022/11/22 01:24:52;;;;;;;0.00;0.00;;;15.90;70.80;;;;;;4191651;28;20101;-59
2022/11/22 01:27:33;;;;;;;0.00;0.00;;;15.90;70.70;;;;;;4200342;28;20461;-60
2022/11/22 01:30:14;;;;;;;0.38;0.38;;;16.00;70.60;;;;;;4205972;28;20051;-60
2022/11/22 01:32:55;;;;;;;0.00;0.00;;;16.00;70.50;;;;;;4208060;28;20150;-60
2022/11/22 01:35:36;;;;;;;0.65;0.65;;;16.00;70.30;;;;;;4194630;28;20511;-60
2022/11/22 01:38:17;;;;;;;0.20;0.20;;;16.10;70.10;;;;;;4191692;28;20443;-59
2022/11/22 01:41:00;;;;;;;1.92;1.38;;;16.10;70.10;;;;;;4195086;28;20810;-59
2022/11/22 01:43:41;;;;;;;0.08;0.08;;;16.10;70.00;;;;;;4191461;28;20059;-59
2022/11/22 01:46:32;;;;;;;0.00;0.00;;;16.10;69.90;;;;;;4195336;28;20055;-59
2022/11/22 01:49:22;;;;;;;0.75;0.75;;;16.20;69.80;;;;;;4206840;28;20059;-58
2022/11/22 01:52:07;;;;;;;0.10;0.10;;;16.10;69.80;;;;;;4205127;28;20189;-58
2022/11/22 01:54:54;;;;;;;0.10;0.10;;;16.20;69.70;;;;;;4200170;28;20060;-59
2022/11/22 01:57:40;;;;;;;0.28;0.28;;;16.20;69.50;;;;;;4196035;28;20083;-59
2022/11/22 02:00:21;;;;;;;0.10;0.10;;;16.20;69.30;;;;;;4206942;28;20050;-60
2022/11/22 02:03:04;;;;;;;0.00;0.00;;;16.20;69.20;;;;;;4192809;28;20113;-60
2022/11/22 02:05:47;;;;;;;0.40;0.40;;;16.20;69.40;;;;;;4201922;28;20198;-60
2022/11/22 02:08:35;;;;;;;0.00;0.00;;;16.20;69.40;;;;;;4202530;28;20624;-60
2022/11/22 02:11:17;;;;;;;0.00;0.00;;;16.30;69.30;;;;;;4205567;28;20472;-60
2022/11/22 02:13:59;;;;;;;4.30;1.75;;;16.30;69.20;;;;;;4194932;28;20055;-60
2022/11/22 02:16:43;;;;;;;0.65;0.65;;;16.30;69.10;;;;;;4195750;28;20403;-59
2022/11/22 02:19:34;;;;;;;0.05;0.05;;;16.20;69.30;;;;;;4194179;28;20507;-59
2022/11/22 02:22:31;;;;;;;0.10;0.10;;;16.20;69.40;;;;;;4196422;28;20058;-59
2022/11/22 02:25:18;;;;;;;0.00;0.00;;;16.20;69.30;;;;;;4210147;28;20058;-60
2022/11/22 02:28:00;;;;;;;0.88;0.32;;;16.20;69.20;;;;;;4197029;28;20118;-60
2022/11/22 02:30:42;;;;;;;0.00;0.00;;;16.20;69.20;;;;;;4193028;28;20193;-60
2022/11/22 02:33:23;;;;;;;1.15;1.08;;;16.20;69.20;;;;;;4201953;28;20066;-60
2022/11/22 02:36:04;;;;;;;0.20;0.20;;;16.10;69.40;;;;;;4200205;28;20533;-60
2022/11/22 02:38:45;;;;;;;0.00;0.00;;;16.10;69.40;;;;;;4199615;27;20059;-60
2022/11/22 02:41:26;;;;;;;0.00;0.00;;;16.10;69.30;;;;;;4182412;28;20055;-59
2022/11/22 02:44:10;;;;;;;0.90;0.90;;;16.10;69.40;;;;;;4192891;28;20051;-60
2022/11/22 02:46:52;;;;;;;0.00;0.00;;;16.10;69.40;;;;;;4192351;28;20130;-60
2022/11/22 02:49:33;;;;;;;0.00;0.00;;;16.20;70.30;;;;;;4177311;28;20078;-60
2022/11/22 02:52:16;;;;;;;0.00;0.00;;;16.20;69.30;;;;;;4185178;28;20067;-59
2022/11/22 02:54:58;;;;;;;0.00;0.00;;;16.30;70.00;;;;;;4194269;28;20075;-60
2022/11/22 02:57:38;;;;;;;0.00;0.00;;;16.30;69.10;;;;;;4194856;28;20059;-60
2022/11/22 03:00:21;;;;;;;0.00;0.00;;;16.30;69.30;;;;;;4193854;28;20121;-61
2022/11/22 03:03:02;;;;;;;0.00;0.00;;;16.30;69.30;;;;;;4208510;28;20093;-59
2022/11/22 03:05:43;;;;;;;0.65;0.65;;;16.30;69.10;;;;;;4196885;28;20056;-60
2022/11/22 03:08:24;;;;;;;0.03;0.03;;;16.40;68.90;;;;;;4208957;28;20067;-60
2022/11/22 03:11:04;;;;;;;0.08;0.08;;;16.40;68.90;;;;;;4196691;28;20399;-60
2022/11/22 03:13:46;;;;;;;0.15;0.15;;;16.30;68.70;;;;;;4193479;28;20051;-60
2022/11/22 03:16:29;;;;;;;0.15;0.15;;;16.30;68.80;;;;;;4192641;28;20043;-60
2022/11/22 03:19:11;;;;;;;0.00;0.00;;;16.30;69.00;;;;;;4207955;28;20521;-60
2022/11/22 03:21:52;;;;;;;0.00;0.00;;;16.30;69.10;;;;;;4203213;28;20060;-60
2022/11/22 03:24:33;;;;;;;0.00;0.00;;;16.30;68.90;;;;;;4187600;28;20415;-60
2022/11/22 03:27:14;;;;;;;0.20;0.20;;;16.30;68.80;;;;;;4208276;28;20196;-60
2022/11/22 03:29:56;;;;;;;0.20;0.20;;;16.30;68.80;;;;;;4197875;28;20079;-59
2022/11/22 03:32:38;;;;;;;0.60;0.60;;;16.20;68.90;;;;;;4193233;28;20062;-59
2022/11/22 03:35:19;;;;;;;0.00;0.00;;;16.20;69.20;;;;;;4197923;28;20114;-59
2022/11/22 03:38:00;;;;;;;0.10;0.10;;;16.10;69.40;;;;;;4201103;28;20055;-59
2022/11/22 03:40:46;;;;;;;1.90;1.75;;;16.10;69.70;;;;;;4188660;28;20051;-59
2022/11/22 03:43:27;;;;;;;0.00;0.00;;;16.10;69.60;;;;;;4194538;28;20067;-58
2022/11/22 03:46:12;;;;;;;0.17;0.15;;;16.10;69.40;;;;;;4193208;28;20052;-59
2022/11/22 03:48:55;;;;;;;0.05;0.05;;;16.10;69.50;;;;;;4194377;28;20396;-59
2022/11/22 03:51:36;;;;;;;1.33;1.30;;;16.10;69.30;;;;;;4192955;28;20129;-59
2022/11/22 03:54:17;;;;;;;0.00;0.00;;;16.10;69.20;;;;;;4193550;28;20102;-59
2022/11/22 03:56:57;;;;;;;0.00;0.00;;;16.10;69.30;;;;;;4193456;28;20064;-59
2022/11/22 03:59:38;;;;;;;0.00;0.00;;;16.10;69.30;;;;;;4192732;28;20063;-59
2022/11/22 04:02:19;;;;;;;0.00;0.00;;;16.10;69.30;;;;;;4205357;28;20054;-60
2022/11/22 04:05:02;;;;;;;0.10;0.10;;;16.10;69.30;;;;;;4207255;28;20047;-61
2022/11/22 04:07:43;;;;;;;0.88;0.88;;;16.10;69.50;;;;;;4208071;28;20072;-60
2022/11/22 04:10:24;;;;;;;0.20;0.20;;;16.10;69.60;;;;;;4191368;28;20407;-60
2022/11/22 04:13:05;;;;;;;0.10;0.10;;;16.10;69.50;;;;;;4207552;28;20482;-60
2022/11/22 04:15:45;;;;;;;0.08;0.08;;;16.10;69.40;;;;;;4194554;28;20063;-60
2022/11/22 04:18:26;;;;;;;1.58;1.40;;;16.10;69.50;;;;;;4193013;28;20063;-59
2022/11/22 04:27:06;;;;;;;0.45;0.45;;;16.20;69.10;;;;;;4205033;28;20185;-60
2022/11/22 04:29:47;;;;;;;0.85;0.85;;;16.20;69.00;;;;;;4194820;28;20383;-59
2022/11/22 04:32:45;;;;;;;0.47;0.47;;;16.20;69.00;;;;;;4192191;28;20077;-58
2022/11/22 04:35:26;;;;;;;0.28;0.28;;;16.30;68.90;;;;;;4196104;28;20055;-61
2022/11/22 04:38:09;;;;;;;0.00;0.00;;;16.40;68.60;;;;;;4207787;28;20097;-59
2022/11/22 04:40:50;;;;;;;0.20;0.20;;;16.40;68.40;;;;;;4209009;28;20055;-60
2022/11/22 04:46:30;;;;;;;0.20;0.20;;;16.50;68.20;;;;;;4192150;28;20060;-60
2022/11/22 04:49:11;;;;;;;0.55;0.55;;;16.50;68.20;;;;;;4205315;28;20071;-59
2022/11/22 04:54:51;;;;;;;0.00;0.00;;;16.40;68.40;;;;;;4195828;28;20058;-59
2022/11/22 04:57:32;;;;;;;0.45;0.45;;;16.40;68.70;;;;;;4175163;28;20163;-60
2022/11/22 05:00:14;;;;;;;0.00;0.00;;;16.40;68.80;;;;;;4191398;28;20403;-59
2022/11/22 05:02:55;;;;;;;0.00;0.00;;;16.40;68.70;;;;;;4207890;28;20920;-59
2022/11/22 05:05:38;;;;;;;0.10;0.10;;;16.30;68.80;;;;;;4197481;28;20059;-60
2022/11/22 05:08:19;;;;;;;0.00;0.00;;;16.30;68.80;;;;;;4203772;28;20138;-59
2022/11/22 05:11:01;;;;;;;0.10;0.10;;;16.30;68.70;;;;;;4207892;28;20059;-60
2022/11/22 05:13:43;;;;;;;0.10;0.10;;;16.40;68.60;;;;;;4207628;28;20063;-62
2022/11/22 05:16:23;;;;;;;0.28;0.28;;;16.40;68.60;;;;;;4195063;28;20042;-59
2022/11/22 05:19:04;;;;;;;0.00;0.00;;;16.40;68.70;;;;;;4187364;28;20074;-60
2022/11/22 05:21:45;;;;;;;0.10;0.10;;;16.40;68.80;;;;;;4197870;28;20059;-59
2022/11/22 05:24:25;;;;;;;0.00;0.00;;;16.40;68.70;;;;;;4200610;28;20823;-60
2022/11/22 05:27:08;;;;;;;0.00;0.00;;;16.30;68.80;;;;;;4191850;28;20529;-60
2022/11/22 05:29:48;;;;;;;1.15;1.10;;;16.30;68.90;;;;;;4205587;28;20120;-59
2022/11/22 05:32:30;;;;;;;0.00;0.00;;;16.30;68.80;;;;;;4190146;28;20092;-59
2022/11/22 05:35:11;;;;;;;0.90;0.90;;;16.40;68.70;;;;;;4207395;28;20521;-61
2022/11/22 05:37:52;;;;;;;0.00;0.00;;;16.40;68.70;;;;;;4195288;28;20170;-60
2022/11/22 05:40:33;;;;;;;0.00;0.00;;;16.40;68.90;;;;;;4207602;28;20395;-60
2022/11/22 05:43:15;;;;;;;0.10;0.10;;;16.40;68.90;;;;;;4193094;28;20059;-60
2022/11/22 05:45:56;;;;;;;1.00;0.15;;;16.40;68.80;;;;;;4193518;28;20053;-60
2022/11/22 05:48:38;;;;;;;0.10;0.10;;;16.40;68.70;;;;;;4194379;28;20632;-60
2022/11/22 05:51:22;;;;;;;0.10;0.10;;;16.40;68.50;;;;;;4204417;28;20438;-60
2022/11/22 05:54:03;;;;;;;0.00;0.00;;;16.40;68.60;;;;;;4193636;28;20063;-60
2022/11/22 05:56:43;;;;;;;0.65;0.65;;;16.40;68.70;;;;;;4195174;28;20133;-60
2022/11/22 05:59:26;;;;;;;0.00;0.00;;;16.40;68.50;;;;;;4196671;28;20047;-64
2022/11/22 06:02:07;;;;;;;0.00;0.00;;;16.50;68.40;;;;;;4201968;28;20059;-59
2022/11/22 06:04:48;;;;;;;0.08;0.08;;;16.40;68.40;;;;;;4191233;28;20055;-60
2022/11/22 06:07:30;;;;;;;0.88;0.88;;;16.40;68.40;;;;;;4194275;28;20109;-60
2022/11/22 06:10:14;;;;;;;0.65;0.65;;;16.40;68.60;;;;;;4194025;28;20506;-60
2022/11/22 06:12:58;;;;;;;0.10;0.10;;;16.40;68.70;;;;;;4202234;28;20105;-63
2022/11/22 06:15:40;;;;;;;0.00;0.00;;;16.40;68.70;;;;;;4208854;28;20078;-61
2022/11/22 06:18:21;;;;;;;0.00;0.00;;;16.30;69.00;;;;;;4208276;28;20097;-60
2022/11/22 06:21:04;;;;;;;0.13;0.13;;;16.30;69.10;;;;;;4200815;28;20062;-65
2022/11/22 06:23:45;;;;;;;0.00;0.00;;;16.30;69.40;;;;;;4210031;28;20059;-60
2022/11/22 06:26:26;;;;;;;0.10;0.10;;;16.20;69.50;;;;;;4202021;28;20047;-60
2022/11/22 06:29:07;;;;;;;;;;;16.20;70.30;;;;;;4209382;28;20716;-58
2022/11/22 06:31:50;;;;;;;0.00;0.00;;;16.20;70.60;;;;;;4206979;28;19927;-59
2022/11/22 06:34:32;;;;;;;0.00;0.00;;;16.30;70.30;;;;;;4189998;28;20060;-58
2022/11/22 06:37:15;;;;;;;0.00;0.00;;;16.30;70.20;;;;;;4193372;28;20104;-58
2022/11/22 06:39:56;;;;;;;0.00;0.00;;;16.30;70.10;;;;;;4206964;28;20121;-59
2022/11/22 06:42:38;;;;;;;0.10;0.10;;;16.30;70.10;;;;;;4208435;28;21161;-59
2022/11/22 06:45:19;;;;;;;0.00;0.00;;;16.30;70.10;;;;;;4196647;28;20054;-59
2022/11/22 06:48:02;;;;;;;0.00;0.00;;;16.20;70.20;;;;;;4192433;28;20055;-59
2022/11/22 06:50:43;;;;;;;0.45;0.45;;;16.20;70.60;;;;;;4194993;28;20199;-61
2022/11/22 06:53:28;;;;;;;0.32;0.32;;;16.30;70.70;;;;;;4194261;28;20047;-59
2022/11/22 06:56:29;;;;;;;0.00;0.00;;;16.30;70.60;;;;;;4192744;28;20064;-59
2022/11/22 06:59:10;;;;;;;0.10;0.10;;;16.30;70.30;;;;;;4197055;28;20090;-59
2022/11/22 07:01:52;;;;;;;0.20;0.20;;;16.40;70.20;;;;;;4214363;28;20055;-59
2022/11/22 07:04:37;;;;;;;0.00;0.00;;;16.40;70.00;;;;;;4190825;28;20063;-60
2022/11/22 07:07:36;;;;;;;0.28;0.28;;;16.50;69.90;;;;;;4170420;28;20055;-59
2022/11/22 07:10:17;;;;;;;0.38;0.38;;;16.50;69.80;;;;;;4196868;28;20133;-59
2022/11/22 07:12:58;;;;;;;;;;;16.40;69.80;;;;;;4193432;28;20118;-60
2022/11/22 07:15:53;;;;;;;;;;;;;;;;;;;;;
2022/11/22 07:19:01;;;;;;;0.00;0.00;;;16.40;69.90;;;;;;4192590;28;20051;-60
2022/11/22 07:21:44;;;;;;;0.00;0.00;;;16.40;70.20;;;;;;4192939;28;20071;-59
2022/11/22 07:24:26;;;;;;;0.65;0.65;;;16.30;70.50;;;;;;4191178;28;20098;-59
2022/11/22 07:27:08;;;;;;;0.00;0.00;;;16.30;70.90;;;;;;4184893;28;20564;-59
2022/11/22 07:29:50;;;;;;;0.00;0.00;;;16.40;70.30;;;;;;4201203;28;20117;-59
2022/11/22 07:32:48;;;;;;;0.00;0.00;;;16.40;70.20;;;;;;4183430;28;20051;-59
2022/11/22 07:35:30;;;;;;;0.25;0.25;;;16.40;70.40;;;;;;4190708;28;20063;-58
2022/11/22 07:38:13;;;;;;;0.00;0.00;;;16.40;70.80;;;;;;4178777;28;20178;-59
2022/11/22 07:41:04;;;;;;;0.00;0.00;;;16.40;71.30;;;;;;4173797;28;20052;-59
2022/11/22 07:43:51;;;;;;;0.20;0.20;;;16.30;72.10;;;;;;4175758;28;20396;-60
2022/11/22 07:46:33;;;;;;;0.00;0.00;;;16.30;71.60;;;;;;4165684;28;20064;-59
2022/11/22 07:49:18;;;;;;;0.55;0.55;;;16.30;71.60;;;;;;4179724;28;20068;-60
2022/11/22 07:52:08;;;;;;;0.00;0.00;;;16.30;71.30;;;;;;4192319;28;20102;-59
2022/11/22 07:55:11;;;;;;;0.00;0.00;;;16.40;71.00;;;;;;4173045;28;20126;-59
2022/11/22 07:57:59;;;;;;;0.38;0.38;;;16.50;70.80;;;;;;4173381;28;20136;-59
2022/11/22 08:00:41;;;;;;;0.38;0.38;;;16.50;70.60;;;;;;4176932;28;20063;-59
2022/11/22 08:03:44;;;;;;;3.13;0.90;;;16.50;70.40;;;;;;4198418;28;20177;-59
2022/11/22 08:06:25;;;;;;;0.10;0.10;;;16.60;70.10;;;;;;4207759;28;20096;-60
2022/11/22 08:09:07;;;;;;;0.00;0.00;;;16.70;69.70;;;;;;4190893;28;20059;-59
2022/11/22 08:11:55;;;;;;;0.08;0.08;;;16.70;69.50;;;;;;4188985;28;20047;-61
2022/11/22 08:14:36;;;;;;;0.20;0.20;;;16.70;69.40;;;;;;4199347;28;20059;-58
2022/11/22 08:17:18;;;;;;;0.00;0.00;;;16.80;69.20;;;;;;4207164;28;20051;-58
2022/11/22 08:20:00;;;;;;;0.00;0.00;;;16.80;69.00;;;;;;4206172;28;20063;-58
2022/11/22 08:22:56;;;;;;;0.05;0.05;;;16.80;69.10;;;;;;4191197;28;20116;-60
2022/11/22 08:26:13;;;;;;;0.00;0.00;;;16.80;69.20;;;;;;4188006;28;20139;-60
2022/11/22 08:28:59;;;;;;;1.60;0.75;;;16.80;69.10;;;;;;4199210;28;20050;-61
2022/11/22 08:31:42;;;;;;;0.85;0.85;;;16.90;69.30;;;;;;4196621;28;20063;-60
2022/11/22 08:34:26;;;;;;;0.00;0.00;;;16.90;69.40;;;;;;4195479;28;20075;-60
2022/11/22 08:37:07;;;;;;;;;;;16.80;69.60;;;;;;4193672;28;20046;-60
2022/11/22 08:39:52;;;;;;;0.00;0.00;;;16.80;69.70;;;;;;4176971;28;20066;-59
2022/11/22 08:42:37;;;;;;;0.00;0.00;;;16.70;69.80;;;;;;4190714;28;20210;-59
2022/11/22 08:45:53;;;;;;;0.20;0.20;;;16.60;70.10;;;;;;4198597;28;20199;-60
2022/11/22 08:49:13;;;;;;;0.00;0.00;;;16.50;70.80;;;;;;4190314;27;20051;-60
2022/11/22 08:52:21;;;;;;;1.10;1.05;;;16.50;71.00;;;;;;4194547;28;20059;-60
2022/11/22 08:55:05;;;;;;;0.00;0.00;;;16.60;70.80;;;;;;4201961;28;20046;-59
2022/11/22 08:57:53;;;;;;;0.00;0.00;;;16.60;70.60;;;;;;4185992;28;20418;-62
2022/11/22 09:00:35;;;;;;;0.00;0.00;;;16.60;70.40;;;;;;4181176;28;20618;-60
2022/11/22 09:03:18;;;;;;;;;;;16.60;70.50;;;;;;4207484;28;20630;-59
2022/11/22 09:06:04;;;;;;;0.98;0.55;;;16.60;70.60;;;;;;4197202;28;20298;-60
2022/11/22 09:09:09;;;;;;;0.00;0.00;;;16.60;70.40;;;;;;4185713;28;20051;-59
2022/11/22 09:12:47;;;;;;;0.03;0.03;;;16.70;70.10;;;;;;4190220;28;20136;-59
2022/11/22 09:16:14;;;;;;;0.00;0.00;;;16.70;70.00;;;;;;4180414;28;20058;-59
2022/11/22 09:18:57;;;;;;;0.00;0.00;;;16.70;70.20;;;;;;4187721;28;20521;-59
2022/11/22 09:21:39;;;;;;;0.32;0.32;;;16.70;70.40;;;;;;4187690;28;20565;-59
2022/11/22 09:24:20;;;;;;;0.00;0.00;;;16.70;70.40;;;;;;4193737;28;20113;-59
2022/11/22 09:27:02;;;;;;;0.00;0.00;;;16.70;70.40;;;;;;4207242;28;20097;-59
2022/11/22 09:29:45;;;;;;;0.00;0.00;;;16.60;70.30;;;;;;4191703;28;20498;-59
2022/11/22 09:32:34;;;;;;;0.00;0.00;;;16.60;70.60;;;;;;4203923;28;20051;-59
2022/11/22 09:35:24;;;;;;;0.10;0.10;;;16.60;70.60;;;;;;4188823;28;20056;-59
2022/11/22 09:38:07;;;;;;;0.08;0.08;;;16.60;70.40;;;;;;4201875;28;20051;-60
2022/11/22 09:41:12;;;;;;;0.10;0.10;;;16.60;70.30;;;;;;4205157;28;20055;-59
2022/11/22 09:44:09;;;;;;;0.00;0.00;;;16.70;70.30;;;;;;4195080;28;20137;-60
2022/11/22 09:46:54;;;;;;;0.00;0.00;;;16.70;70.30;;;;;;4200194;28;20047;-59
2022/11/22 09:49:45;;;;;;;2.28;0.85;;;16.70;70.20;;;;;;4199063;28;20086;-57
2022/11/22 09:53:04;;;;;;;0.00;0.00;;;16.70;70.30;;;;;;4157178;28;20525;-60
2022/11/22 09:56:33;;;;;;;0.00;0.00;;;16.70;70.30;;;;;;4186853;28;20112;-60
2022/11/22 09:59:37;;;;;;;0.10;0.10;;;16.70;70.00;;;;;;4186465;28;20109;-60
2022/11/22 10:02:35;;;;;;;0.00;0.00;;;16.70;70.00;;;;;;4186320;28;20059;-59
2022/11/22 10:05:48;;;;;;;0.17;0.17;;;16.60;70.00;;;;;;4200837;28;20058;-58
2022/11/22 10:08:37;;;;;;;0.00;0.00;;;16.60;69.80;;;;;;4189418;28;20597;-59
2022/11/22 10:11:24;;;;;;;0.00;0.00;;;16.60;70.00;;;;;;4188367;28;20055;-59
2022/11/22 10:14:22;;;;;;;0.00;0.00;;;16.50;70.00;;;;;;4190042;28;20486;-59
2022/11/22 10:17:20;;;;;;;0.28;0.28;;;16.50;70.00;;;;;;4179088;28;20064;-57
2022/11/22 10:20:06;;;;;;;1.35;1.25;;;16.60;69.70;;;;;;4189345;28;20536;-57
2022/11/22 10:22:48;;;;;;;0.00;0.00;;;16.60;69.50;;;;;;4186208;28;20063;-59
2022/11/22 10:25:38;;;;;;;0.20;0.20;;;16.60;69.30;;;;;;4175875;28;20118;-57
2022/11/22 10:28:29;;;;;;;0.00;0.00;;;16.50;69.40;;;;;;4178746;28;20055;-58
2022/11/22 10:31:17;;;;;;;0.43;0.43;;;16.60;69.50;;;;;;4184683;28;20060;-56
2022/11/22 10:34:09;;;;;;;7.03;1.25;;;16.60;69.30;;;;;;4171850;28;20055;-55
2022/11/22 10:36:56;;;;;;;1.08;0.98;;;16.70;69.40;;;;;;4186601;28;20688;-54
2022/11/22 10:39:54;;;;;;;0.00;0.00;;;16.60;69.50;;;;;;4172505;28;20180;-56
2022/11/22 10:43:05;;;;;;;0.00;0.00;;;16.70;69.80;;;;;;4178828;28;20066;-55
2022/11/22 10:45:52;;;;;;;0.60;0.60;;;16.60;70.00;;;;;;4208854;28;20089;-57
2022/11/22 10:48:56;;;;;;;0.00;0.00;;;16.60;70.20;;;;;;4181675;28;20060;-60
2022/11/22 10:51:51;;;;;;;0.00;0.00;;;16.60;70.30;;;;;;4175647;28;20591;-56
2022/11/22 10:54:48;;;;;;;0.20;0.20;;;16.60;70.40;;;;;;4201210;28;20181;-56
2022/11/22 10:57:38;;;;;;;0.00;0.00;;;16.60;70.60;;;;;;4197807;28;20408;-55
2022/11/22 11:00:23;;;;;;;0.47;0.47;;;16.50;70.90;;;;;;4174944;28;20122;-56
2022/11/22 11:03:13;;;;;;;0.00;0.00;;;16.40;71.30;;;;;;4186107;28;20114;-55
2022/11/22 11:05:58;;;;;;;0.03;0.03;;;16.40;71.30;;;;;;4179212;28;20407;-57
2022/11/22 11:12:57;;;;;;;0.10;0.10;;;16.40;71.30;;;;;;4181304;28;20043;-57
2022/11/22 11:15:44;;;;;;;0.00;0.00;;;16.50;72.20;;;;;;4175688;28;20086;-56
2022/11/22 11:18:30;;;;;;;0.00;0.00;;;16.50;71.30;;;;;;4172679;28;20716;-59
2022/11/22 11:21:18;;;;;;;0.15;0.15;;;16.50;71.50;;;;;;4205970;28;20110;-61
2022/11/22 11:24:00;;;;;;;0.00;0.00;;;16.50;71.10;;;;;;4197737;28;20055;-61
2022/11/22 11:26:52;;;;;;;0.00;0.00;;;16.50;71.60;;;;;;4172745;28;20060;-60
2022/11/22 11:29:43;;;;;;;0.00;0.00;;;16.50;71.80;;;;;;4182322;28;20063;-61
2022/11/22 11:32:26;;;;;;;0.00;0.00;;;16.60;72.10;;;;;;4192322;28;20129;-60
2022/11/22 11:35:19;;;;;;;0.03;0.03;;;16.60;72.10;;;;;;4173732;28;20056;-63
2022/11/22 11:38:01;;;;;;;1.58;1.50;;;16.60;72.30;;;;;;4153531;28;20055;-60
2022/11/22 11:40:48;;;;;;;0.80;0.80;;;16.50;72.30;;;;;;4176931;28;20052;-61
2022/11/22 11:43:31;;;;;;;0.00;0.00;;;16.50;72.50;;;;;;4164928;28;20098;-57
2022/11/22 11:46:17;;;;;;;0.00;0.00;;;16.40;72.90;;;;;;4189967;28;20059;-60
2022/11/22 11:49:10;;;;;;;1.45;0.95;;;16.30;73.00;;;;;;4185596;28;20054;-60
2022/11/22 11:52:01;;;;;;;0.32;0.32;;;16.20;73.20;;;;;;4190021;28;20095;-60
2022/11/22 11:54:49;;;;;;;0.00;0.00;;;16.10;73.60;;;;;;4179233;28;20183;-58
2022/11/22 11:57:36;;;;;;;1.33;1.17;;;16.00;74.00;;;;;;4195780;28;20058;-59
2022/11/22 12:00:34;;;;;;;0.00;0.00;;;16.00;74.30;;;;;;4205553;28;20055;-58
2022/11/22 12:03:34;;;;;;;0.20;0.20;;;15.90;74.70;;;;;;4195788;27;20050;-58
2022/11/22 12:06:29;;;;;;;0.10;0.10;;;15.80;75.00;;;;;;4174056;28;20190;-58
2022/11/22 12:09:28;;;;;;;0.80;0.80;;;15.80;75.30;;;;;;4184953;28;20063;-60
2022/11/22 12:12:18;;;;;;;0.00;0.00;;;15.70;75.50;;;;;;4191372;28;20790;-58
2022/11/22 12:15:07;;;;;;;10.27;2.40;;;15.70;75.80;;;;;;4201132;28;20145;-59
2022/11/22 12:17:58;;;;;;;0.10;0.10;;;15.60;76.20;;;;;;4200252;28;20547;-58
2022/11/22 12:20:46;;;;;;;0.30;0.30;;;15.60;76.30;;;;;;4199137;27;20543;-58
2022/11/22 12:24:02;;;;;;;0.00;0.00;;;15.50;76.50;;;;;;4196796;28;20100;-59
2022/11/22 12:27:04;;;;;;;;;;;15.50;76.80;;;;;;4208360;28;20064;-61
2022/11/22 12:29:48;;;;;;;0.43;0.43;;;15.50;76.60;;;;;;4175670;28;19928;-59
2022/11/22 12:32:31;;;;;;;;;;;15.60;76.60;;;;;;4176241;28;20052;-60
2022/11/22 12:35:16;;;;;;;0.00;0.00;;;15.60;77.50;;;;;;4178536;28;19966;-59
2022/11/22 12:38:11;;;;;;;0.05;0.05;;;15.60;76.80;;;;;;4174651;28;20056;-62
2022/11/22 12:40:57;;;;;;;0.98;0.95;;;15.60;77.10;;;;;;4173863;28;20407;-59
2022/11/22 12:43:45;;;;;;;0.10;0.10;;;15.50;77.10;;;;;;4174577;28;20411;-59
2022/11/22 12:46:30;;;;;;;0.00;0.00;;;15.50;77.20;;;;;;4178583;28;20126;-59
2022/11/22 12:49:17;;;;;;;0.52;0.52;;;15.50;77.20;;;;;;4179163;28;20162;-59
2022/11/22 12:52:07;;;;;;;0.00;0.00;;;15.50;77.40;;;;;;4185098;28;20044;-59
2022/11/22 12:55:02;;;;;;;0.00;0.00;;;15.40;77.60;;;;;;4173977;28;20555;-60
2022/11/22 12:58:24;;;;;;;0.05;0.05;;;15.40;77.70;;;;;;4176666;28;20071;-60
2022/11/22 13:01:13;;;;;;;6.45;1.30;;;15.30;77.90;;;;;;4175306;28;20059;-59
2022/11/22 13:03:59;;;;;;;1.55;1.40;;;15.30;78.00;;;;;;4160706;28;20064;-59
2022/11/22 13:06:47;;;;;;;0.00;0.00;;;15.30;78.10;;;;;;4162303;28;20064;-60
2022/11/22 13:09:33;;;;;;;0.20;0.20;;;15.20;78.20;;;;;;4186472;28;20070;-59
2022/11/22 13:12:25;;;;;;;4.47;2.08;;;15.20;78.40;;;;;;4184023;28;20063;-60
2022/11/22 13:15:13;;;;;;;0.00;0.00;;;15.20;78.40;;;;;;4171803;28;20071;-57
2022/11/22 13:17:55;;;;;;;0.03;0.03;;;15.20;78.80;;;;;;4172994;28;20072;-58
2022/11/22 13:20:39;;;;;;;0.00;0.00;;;15.30;78.60;;;;;;4186267;28;20202;-58
2022/11/22 13:23:44;;;;;;;2.47;2.38;;;15.30;78.00;;;;;;4174464;28;20527;-58
2022/11/22 13:26:47;;;;;;;0.08;0.08;;;15.40;77.70;;;;;;4161146;28;20087;-58
2022/11/22 13:29:30;;;;;;;0.08;0.08;;;15.50;77.40;;;;;;4158611;28;20068;-58
2022/11/22 13:32:22;;;;;;;5.07;4.63;;;15.50;77.10;;;;;;4158977;28;20098;-57
2022/11/22 13:35:35;;;;;;;0.10;0.10;;;15.50;77.10;;;;;;4157680;28;20084;-59
2022/11/22 13:38:18;;;;;;;0.00;0.00;;;15.50;77.00;;;;;;4163035;28;20071;-60
2022/11/22 13:41:23;;;;;;;0.00;0.00;;;15.60;76.90;;;;;;4159846;28;20392;-57
2022/11/22 13:44:24;;;;;;;0.00;0.00;;;15.60;76.70;;;;;;4160214;28;20068;-58
2022/11/22 13:47:43;;;;;;;0.00;0.00;;;15.60;76.50;;;;;;4173497;28;20055;-60
2022/11/22 13:50:59;;;;;;;1.30;1.20;;;15.60;76.40;;;;;;4177676;28;20116;-58
2022/11/22 13:57:00;;;;;;;0.25;0.25;;;15.70;76.20;;;;;;4162038;28;20443;-58
2022/11/22 13:59:42;;;;;;;0.00;0.00;;;15.70;76.00;;;;;;4171065;28;20063;-58
2022/11/22 14:02:24;;;;;;;0.00;0.00;;;15.70;76.00;;;;;;4176145;28;20081;-59
2022/11/22 14:05:18;;;;;;;1.17;1.08;;;15.70;76.10;;;;;;4165668;28;20526;-59
2022/11/22 14:08:01;;;;;;;0.57;0.57;;;15.60;76.20;;;;;;4173868;28;20062;-58
2022/11/22 14:11:23;;;;;;;0.10;0.10;;;15.70;76.20;;;;;;4176762;28;20060;-59
2022/11/22 14:14:19;;;;;;;0.10;0.10;;;15.70;76.10;;;;;;4168059;28;20060;-59
2022/11/22 14:17:18;;;;;;;0.70;0.70;;;15.60;75.90;;;;;;4176752;28;20059;-58
2022/11/22 14:20:08;;;;;;;0.52;0.52;;;15.70;75.90;;;;;;4174100;28;20063;-59
2022/11/22 14:23:02;;;;;;;0.00;0.00;;;15.60;76.00;;;;;;4176973;28;20048;-58
2022/11/22 14:25:58;;;;;;;0.10;0.10;;;15.60;76.00;;;;;;4177254;28;20203;-59
2022/11/22 14:29:14;;;;;;;0.00;0.00;;;15.60;76.20;;;;;;4186180;28;20068;-59
2022/11/22 14:32:00;;;;;;;0.65;0.65;;;15.50;76.30;;;;;;4178801;28;20056;-58
2022/11/22 14:35:15;;;;;;;0.43;0.43;;;15.50;76.50;;;;;;4166912;28;20104;-58
2022/11/22 14:38:37;;;;;;;0.10;0.10;;;15.40;76.70;;;;;;4152279;28;20103;-58
2022/11/22 14:41:50;;;;;;;0.00;0.00;;;15.40;77.00;;;;;;4139993;28;20227;-57
2022/11/22 14:44:42;;;;;;;;;;;15.30;77.20;;;;;;4132499;28;20460;-58
2022/11/22 14:47:23;;;;;;;0.00;0.00;;;15.40;77.30;;;;;;4136700;28;20035;-57
2022/11/22 14:50:32;;;;;;;0.32;0.30;;;15.40;76.90;;;;;;4153655;28;20083;-58
2022/11/22 14:53:46;;;;;;;0.00;0.00;;;15.40;76.80;;;;;;4144701;28;20611;-58
2022/11/22 14:56:32;;;;;;;10.00;1.90;;;15.50;76.70;;;;;;4137086;28;20056;-58